createdAt,value
2022-08-03T00:00:32.716Z,40.77
2022-08-03T00:01:32.704Z,40.44
2022-08-03T00:02:32.714Z,40.28
2022-08-03T00:03:32.797Z,40.77
2022-08-03T00:04:34.167Z,40.61
2022-08-03T00:05:32.689Z,40.77
2022-08-03T00:06:36.798Z,40.61
2022-08-03T00:07:33.672Z,40.77
2022-08-03T00:08:32.674Z,40.93
2022-08-03T00:09:35.476Z,41.25
2022-08-03T00:10:32.627Z,40.93
2022-08-03T00:11:32.653Z,40.28
2022-08-03T00:12:32.634Z,40.61
2022-08-03T00:13:32.620Z,40.61
2022-08-03T00:14:32.719Z,40.61
2022-08-03T00:15:32.620Z,40.61
2022-08-03T00:16:32.631Z,41.09
2022-08-03T00:17:53.500Z,40.12
2022-08-03T00:18:34.650Z,39.80
2022-08-03T00:19:32.574Z,40.44
2022-08-03T00:20:32.592Z,40.61
2022-08-03T00:21:32.640Z,40.28
2022-08-03T00:22:32.608Z,40.44
2022-08-03T00:23:51.887Z,40.28
2022-08-03T00:24:34.534Z,40.61
2022-08-03T00:25:32.563Z,40.61
2022-08-03T00:26:32.511Z,42.06
2022-08-03T00:27:32.746Z,41.73
2022-08-03T00:28:32.533Z,41.25
2022-08-03T00:29:32.570Z,39.96
2022-08-03T00:30:32.588Z,40.44
2022-08-03T00:31:44.928Z,41.25
2022-08-03T00:32:33.546Z,39.80
2022-08-03T00:33:58.888Z,41.09
2022-08-03T00:34:57.582Z,40.44
2022-08-03T00:35:50.220Z,40.93
2022-08-03T00:36:33.498Z,41.41
2022-08-03T00:37:41.060Z,41.89
2022-08-03T00:38:33.467Z,40.93
2022-08-03T00:39:32.472Z,40.28
2022-08-03T00:40:32.476Z,40.12
2022-08-03T00:41:32.455Z,40.93
2022-08-03T00:42:32.490Z,40.93
2022-08-03T00:43:32.444Z,42.22
2022-08-03T00:44:32.431Z,40.77
2022-08-03T00:45:32.427Z,40.61
2022-08-03T00:46:32.449Z,40.61
2022-08-03T00:47:32.422Z,40.93
2022-08-03T00:48:33.441Z,41.09
2022-08-03T00:49:32.460Z,40.28
2022-08-03T00:50:32.395Z,40.77
2022-08-03T00:51:32.390Z,40.93
2022-08-03T00:52:32.461Z,41.25
2022-08-03T00:53:32.399Z,41.73
2022-08-03T00:54:32.379Z,40.77
2022-08-03T00:55:32.385Z,41.41
2022-08-03T00:56:32.337Z,41.09
2022-08-03T00:57:32.359Z,40.77
2022-08-03T00:58:32.343Z,40.77
2022-08-03T00:59:32.337Z,40.93
2022-08-03T01:00:32.373Z,40.93
2022-08-03T01:01:32.797Z,40.77
2022-08-03T01:02:32.325Z,40.28
2022-08-03T01:03:32.329Z,40.93
2022-08-03T01:04:32.395Z,40.77
2022-08-03T01:05:32.346Z,40.77
2022-08-03T01:06:32.325Z,41.09
2022-08-03T01:07:32.314Z,40.44
2022-08-03T01:08:32.298Z,42.54
2022-08-03T01:09:32.300Z,43.51
2022-08-03T01:10:32.296Z,40.61
2022-08-03T01:11:32.279Z,41.09
2022-08-03T01:12:32.253Z,41.09
2022-08-03T01:14:04.233Z,40.93
2022-08-03T01:14:33.234Z,42.22
2022-08-03T01:15:32.306Z,41.09
2022-08-03T01:16:36.826Z,41.25
2022-08-03T01:17:32.269Z,40.61
2022-08-03T01:18:32.260Z,41.25
2022-08-03T01:19:32.272Z,41.41
2022-08-03T01:20:32.297Z,41.09
2022-08-03T01:21:32.244Z,42.70
2022-08-03T01:22:32.203Z,42.06
2022-08-03T01:23:32.307Z,41.89
2022-08-03T01:24:32.199Z,41.41
2022-08-03T01:25:32.237Z,41.41
2022-08-03T01:26:32.162Z,42.22
2022-08-03T01:27:32.245Z,45.60
2022-08-03T01:28:32.241Z,43.34
2022-08-03T01:29:32.151Z,42.22
2022-08-03T01:30:32.156Z,42.06
2022-08-03T01:31:32.249Z,41.57
2022-08-03T01:33:00.249Z,41.73
2022-08-03T01:33:33.172Z,41.41
2022-08-03T01:34:32.328Z,42.86
2022-08-03T01:35:32.121Z,42.22
2022-08-03T01:36:32.160Z,41.89
2022-08-03T01:37:32.122Z,41.89
2022-08-03T01:38:32.115Z,42.06
2022-08-03T01:39:32.151Z,42.22
2022-08-03T01:40:32.076Z,41.89
2022-08-03T01:41:32.101Z,41.89
2022-08-03T01:42:32.084Z,41.89
2022-08-03T01:44:28.686Z,42.70
2022-08-03T01:44:33.094Z,42.54
2022-08-03T01:45:33.908Z,42.06
2022-08-03T01:46:32.039Z,41.57
2022-08-03T01:47:32.045Z,41.89
2022-08-03T01:48:32.026Z,41.89
2022-08-03T01:49:32.113Z,41.73
2022-08-03T01:50:32.062Z,41.57
2022-08-03T01:52:02.736Z,42.06
2022-08-03T01:52:33.025Z,41.73
2022-08-03T01:53:33.046Z,41.73
2022-08-03T01:54:32.028Z,41.25
2022-08-03T01:55:31.994Z,41.73
2022-08-03T01:56:32.001Z,42.06
2022-08-03T01:57:32.049Z,41.73
2022-08-03T01:58:31.985Z,41.41
2022-08-03T01:59:32.029Z,41.09
2022-08-03T02:00:31.974Z,41.25
2022-08-03T02:02:28.293Z,41.57
2022-08-03T02:02:34.621Z,42.06
2022-08-03T02:03:31.952Z,41.89
2022-08-03T02:04:31.969Z,42.22
2022-08-03T02:05:31.946Z,42.06
2022-08-03T02:06:59.942Z,42.22
2022-08-03T02:07:32.945Z,41.57
2022-08-03T02:08:31.924Z,41.57
2022-08-03T02:09:31.990Z,41.89
2022-08-03T02:10:35.556Z,42.22
2022-08-03T02:11:31.903Z,41.89
2022-08-03T02:12:31.914Z,42.22
2022-08-03T02:13:31.874Z,41.73
2022-08-03T02:14:31.917Z,42.06
2022-08-03T02:15:31.921Z,42.54
2022-08-03T02:16:31.908Z,41.73
2022-08-03T02:17:38.730Z,42.70
2022-08-03T02:18:32.874Z,42.54
2022-08-03T02:19:35.584Z,42.22
2022-08-03T02:20:32.883Z,45.92
2022-08-03T02:21:56.002Z,43.99
2022-08-03T02:22:32.954Z,44.79
2022-08-03T02:23:31.819Z,42.70
2022-08-03T02:24:31.790Z,42.38
2022-08-03T02:25:31.864Z,42.22
2022-08-03T02:26:31.848Z,42.38
2022-08-03T02:27:31.816Z,42.70
2022-08-03T02:28:31.815Z,43.02
2022-08-03T02:29:38.813Z,43.83
2022-08-03T02:30:32.793Z,43.83
2022-08-03T02:31:31.808Z,42.54
2022-08-03T02:32:31.780Z,42.86
2022-08-03T02:33:31.877Z,42.86
2022-08-03T02:34:31.899Z,42.38
2022-08-03T02:35:31.819Z,43.34
2022-08-03T02:36:31.812Z,42.86
2022-08-03T02:37:31.760Z,43.18
2022-08-03T02:38:31.773Z,44.79
2022-08-03T02:39:31.717Z,43.34
2022-08-03T02:40:31.767Z,43.83
2022-08-03T02:41:31.790Z,43.18
2022-08-03T02:42:31.706Z,43.18
2022-08-03T02:43:41.284Z,43.18
2022-08-03T02:44:32.725Z,43.67
2022-08-03T02:45:31.709Z,43.18
2022-08-03T02:46:31.737Z,43.18
2022-08-03T02:47:53.601Z,42.70
2022-08-03T02:48:32.718Z,43.51
2022-08-03T02:49:41.186Z,42.54
2022-08-03T02:50:32.668Z,42.54
2022-08-03T02:51:31.650Z,42.54
2022-08-03T02:52:31.623Z,42.38
2022-08-03T02:53:31.766Z,42.86
2022-08-03T02:54:31.658Z,42.70
2022-08-03T02:55:31.623Z,42.22
2022-08-03T02:56:31.596Z,42.22
2022-08-03T02:57:31.637Z,42.70
2022-08-03T02:58:31.652Z,42.86
2022-08-03T02:59:31.626Z,42.70
2022-08-03T03:00:31.592Z,43.34
2022-08-03T03:01:31.633Z,43.34
2022-08-03T03:02:31.598Z,43.02
2022-08-03T03:03:34.562Z,42.22
2022-08-03T03:04:33.213Z,43.02
2022-08-03T03:05:55.556Z,43.02
2022-08-03T03:06:32.558Z,43.02
2022-08-03T03:07:36.033Z,42.54
2022-08-03T03:08:32.540Z,43.18
2022-08-03T03:09:40.112Z,44.15
2022-08-03T03:10:32.593Z,44.96
2022-08-03T03:11:31.527Z,44.79
2022-08-03T03:12:31.502Z,44.15
2022-08-03T03:13:31.516Z,43.83
2022-08-03T03:14:33.150Z,44.47
2022-08-03T03:15:31.499Z,45.12
2022-08-03T03:16:31.514Z,43.18
2022-08-03T03:17:31.473Z,43.18
2022-08-03T03:18:31.489Z,43.99
2022-08-03T03:19:31.500Z,46.25
2022-08-03T03:20:31.457Z,44.47
2022-08-03T03:21:31.494Z,49.31
2022-08-03T03:22:31.479Z,44.96
2022-08-03T03:23:31.451Z,45.28
2022-08-03T03:24:31.460Z,44.31
2022-08-03T03:25:31.447Z,43.18
2022-08-03T03:26:31.472Z,43.18
2022-08-03T03:27:31.466Z,43.51
2022-08-03T03:28:31.440Z,43.99
2022-08-03T03:29:31.427Z,45.76
2022-08-03T03:30:32.404Z,47.86
2022-08-03T03:31:31.458Z,44.96
2022-08-03T03:32:31.479Z,45.60
2022-08-03T03:33:31.381Z,45.76
2022-08-03T03:34:31.391Z,44.47
2022-08-03T03:35:31.391Z,45.92
2022-08-03T03:36:32.404Z,45.76
2022-08-03T03:37:31.421Z,44.31
2022-08-03T03:38:31.382Z,45.76
2022-08-03T03:39:31.367Z,45.28
2022-08-03T03:40:31.353Z,44.96
2022-08-03T03:41:31.394Z,46.73
2022-08-03T03:42:31.359Z,45.92
2022-08-03T03:43:31.389Z,45.12
2022-08-03T03:44:31.387Z,43.34
2022-08-03T03:45:31.334Z,43.99
2022-08-03T03:46:31.355Z,44.79
2022-08-03T03:47:32.224Z,45.28
2022-08-03T03:48:32.214Z,45.92
2022-08-03T03:49:31.380Z,46.41
2022-08-03T03:50:31.289Z,45.28
2022-08-03T03:51:31.268Z,45.28
2022-08-03T03:52:31.292Z,46.41
2022-08-03T03:53:31.317Z,45.44
2022-08-03T03:54:31.263Z,45.60
2022-08-03T03:55:31.290Z,46.08
2022-08-03T03:56:31.233Z,47.86
2022-08-03T03:57:31.279Z,44.31
2022-08-03T03:58:31.295Z,43.99
2022-08-03T03:59:31.227Z,46.89
2022-08-03T04:00:31.380Z,45.76
2022-08-03T04:01:31.224Z,48.50
2022-08-03T04:02:31.209Z,47.21
2022-08-03T04:03:31.247Z,46.41
2022-08-03T04:04:31.219Z,46.41
2022-08-03T04:05:31.211Z,45.44
2022-08-03T04:06:31.223Z,47.86
2022-08-03T04:07:31.159Z,45.92
2022-08-03T04:08:31.253Z,46.08
2022-08-03T04:09:31.173Z,45.28
2022-08-03T04:10:31.262Z,44.63
2022-08-03T04:11:31.900Z,45.28
2022-08-03T04:12:31.145Z,46.73
2022-08-03T04:13:31.145Z,45.60
2022-08-03T04:14:31.165Z,46.41
2022-08-03T04:15:31.145Z,44.79
2022-08-03T04:16:31.206Z,46.89
2022-08-03T04:17:31.106Z,46.25
2022-08-03T04:18:31.110Z,46.25
2022-08-03T04:19:31.137Z,47.53
2022-08-03T04:20:31.080Z,47.37
2022-08-03T04:21:31.076Z,48.18
2022-08-03T04:22:31.099Z,47.37
2022-08-03T04:23:31.078Z,46.89
2022-08-03T04:24:31.080Z,49.31
2022-08-03T04:25:31.099Z,49.15
2022-08-03T04:26:31.109Z,50.60
2022-08-03T04:27:31.058Z,45.76
2022-08-03T04:28:32.025Z,46.08
2022-08-03T04:29:32.044Z,47.53
2022-08-03T04:30:31.026Z,46.73
2022-08-03T04:31:31.032Z,47.37
2022-08-03T04:32:31.116Z,45.44
2022-08-03T04:33:31.012Z,47.53
2022-08-03T04:34:31.014Z,45.76
2022-08-03T04:35:54.662Z,48.82
2022-08-03T04:36:32.003Z,46.25
2022-08-03T04:37:31.032Z,47.86
2022-08-03T04:38:31.050Z,45.76
2022-08-03T04:39:30.991Z,48.02
2022-08-03T04:40:30.965Z,47.05
2022-08-03T04:41:30.968Z,46.08
2022-08-03T04:42:30.969Z,44.79
2022-08-03T04:43:30.947Z,45.76
2022-08-03T04:44:30.973Z,44.79
2022-08-03T04:45:30.943Z,44.47
2022-08-03T04:46:30.940Z,44.79
2022-08-03T04:47:30.899Z,44.63
2022-08-03T04:48:30.924Z,44.79
2022-08-03T04:49:31.031Z,43.83
2022-08-03T04:50:30.914Z,41.09
2022-08-03T04:51:30.924Z,43.02
2022-08-03T04:52:30.921Z,44.79
2022-08-03T04:53:30.928Z,46.25
2022-08-03T04:54:30.964Z,44.96
2022-08-03T04:55:30.928Z,43.18
2022-08-03T04:56:30.857Z,40.61
2022-08-03T04:57:30.863Z,44.79
2022-08-03T04:58:30.837Z,41.89
2022-08-03T04:59:30.865Z,37.54
2022-08-03T05:00:30.855Z,42.22
2022-08-03T05:01:30.915Z,40.44
2022-08-03T05:02:30.878Z,49.63
2022-08-03T05:03:30.820Z,48.82
2022-08-03T05:04:30.815Z,45.12
2022-08-03T05:05:50.062Z,42.38
2022-08-03T05:06:31.787Z,43.99
2022-08-03T05:07:36.455Z,43.02
2022-08-03T05:08:31.823Z,44.47
2022-08-03T05:09:50.153Z,37.38
2022-08-03T05:10:31.848Z,43.83
2022-08-03T05:11:30.812Z,40.93
2022-08-03T05:12:33.747Z,42.86
2022-08-03T05:13:31.784Z,42.54
2022-08-03T05:14:30.710Z,41.89
2022-08-03T05:15:30.704Z,44.96
2022-08-03T05:16:30.699Z,42.22
2022-08-03T05:17:30.730Z,42.86
2022-08-03T05:18:30.766Z,42.06
2022-08-03T05:19:30.706Z,43.18
2022-08-03T05:20:30.747Z,40.77
2022-08-03T05:21:50.325Z,44.15
2022-08-03T05:22:31.697Z,43.34
2022-08-03T05:23:30.666Z,42.70
2022-08-03T05:24:30.677Z,44.96
2022-08-03T05:25:30.710Z,40.61
2022-08-03T05:26:30.737Z,42.70
2022-08-03T05:27:30.648Z,39.48
2022-08-03T05:28:30.638Z,41.25
2022-08-03T05:29:30.645Z,40.77
2022-08-03T05:30:33.828Z,41.09
2022-08-03T05:31:30.634Z,39.96
2022-08-03T05:32:30.726Z,41.41
2022-08-03T05:33:30.606Z,43.34
2022-08-03T05:34:30.592Z,42.38
2022-08-03T05:36:01.981Z,41.73
2022-08-03T05:36:31.566Z,44.31
2022-08-03T05:37:30.632Z,42.38
2022-08-03T05:38:34.580Z,44.31
2022-08-03T05:39:30.593Z,44.96
2022-08-03T05:40:30.552Z,43.34
2022-08-03T05:41:36.824Z,43.83
2022-08-03T05:42:31.593Z,41.73
2022-08-03T05:43:30.586Z,41.09
2022-08-03T05:44:30.659Z,42.06
2022-08-03T05:45:30.553Z,42.54
2022-08-03T05:46:30.553Z,45.12
2022-08-03T05:47:30.577Z,45.28
2022-08-03T05:48:30.638Z,44.31
2022-08-03T05:49:30.583Z,41.73
2022-08-03T05:50:30.499Z,38.51
2022-08-03T05:51:30.516Z,41.09
2022-08-03T05:52:30.675Z,39.16
2022-08-03T05:53:30.475Z,41.57
2022-08-03T05:54:56.306Z,43.83
2022-08-03T05:55:31.485Z,45.76
2022-08-03T05:56:30.466Z,48.18
2022-08-03T05:57:30.464Z,40.93
2022-08-03T05:58:30.469Z,42.22
2022-08-03T05:59:38.476Z,42.70
2022-08-03T06:00:32.415Z,40.28
2022-08-03T06:01:30.514Z,41.25
2022-08-03T06:02:30.430Z,42.70
2022-08-03T06:03:30.430Z,43.99
2022-08-03T06:04:30.425Z,44.96
2022-08-03T06:05:30.395Z,42.86
2022-08-03T06:06:32.329Z,42.22
2022-08-03T06:07:31.402Z,44.63
2022-08-03T06:08:30.479Z,42.70
2022-08-03T06:09:31.915Z,44.47
2022-08-03T06:10:35.738Z,43.18
2022-08-03T06:11:31.797Z,44.96
2022-08-03T06:12:30.472Z,46.25
2022-08-03T06:13:30.566Z,44.79
2022-08-03T06:14:30.359Z,41.25
2022-08-03T06:15:30.319Z,42.86
2022-08-03T06:16:30.298Z,44.96
2022-08-03T06:17:30.345Z,44.31
2022-08-03T06:18:31.289Z,41.41
2022-08-03T06:19:30.319Z,41.89
2022-08-03T06:20:30.277Z,41.57
2022-08-03T06:21:30.279Z,40.28
2022-08-03T06:22:30.263Z,42.22
2022-08-03T06:23:53.962Z,45.44
2022-08-03T06:24:31.280Z,41.25
2022-08-03T06:25:30.259Z,41.25
2022-08-03T06:26:30.230Z,43.67
2022-08-03T06:27:37.006Z,41.57
2022-08-03T06:28:52.357Z,44.79
2022-08-03T06:29:32.275Z,41.41
2022-08-03T06:30:31.225Z,41.89
2022-08-03T06:31:32.916Z,45.92
2022-08-03T06:32:30.196Z,48.02
2022-08-03T06:34:30.429Z,41.57
2022-08-03T06:34:35.599Z,42.22
2022-08-03T06:35:30.184Z,44.96
2022-08-03T06:36:30.177Z,42.54
2022-08-03T06:37:30.157Z,42.06
2022-08-03T06:38:30.192Z,43.34
2022-08-03T06:39:30.169Z,40.77
2022-08-03T06:40:30.208Z,47.05
2022-08-03T06:41:30.328Z,42.70
2022-08-03T06:42:31.216Z,44.15
2022-08-03T06:43:31.177Z,43.51
2022-08-03T06:44:30.107Z,44.31
2022-08-03T06:45:31.975Z,45.28
2022-08-03T06:46:30.180Z,44.47
2022-08-03T06:47:30.205Z,42.22
2022-08-03T06:48:30.119Z,44.79
2022-08-03T06:49:31.130Z,41.57
2022-08-03T06:50:30.250Z,43.34
2022-08-03T06:52:05.570Z,42.22
2022-08-03T06:52:38.140Z,42.86
2022-08-03T06:53:31.122Z,45.60
2022-08-03T06:54:32.850Z,46.89
2022-08-03T06:55:30.058Z,46.73
2022-08-03T06:56:30.083Z,46.08
2022-08-03T06:57:30.026Z,44.63
2022-08-03T06:58:30.023Z,43.34
2022-08-03T07:00:07.599Z,43.67
2022-08-03T07:00:31.027Z,44.63
2022-08-03T07:01:30.086Z,45.12
2022-08-03T07:02:29.996Z,43.83
2022-08-03T07:03:30.111Z,47.05
2022-08-03T07:04:30.008Z,47.05
2022-08-03T07:05:30.042Z,45.60
2022-08-03T07:06:29.985Z,46.41
2022-08-03T07:07:29.950Z,44.63
2022-08-03T07:08:33.622Z,46.08
2022-08-03T07:09:29.965Z,43.51
2022-08-03T07:10:29.976Z,44.63
2022-08-03T07:11:29.961Z,44.15
2022-08-03T07:12:29.952Z,43.51
2022-08-03T07:13:29.938Z,44.63
2022-08-03T07:14:29.899Z,42.86
2022-08-03T07:15:54.344Z,44.63
2022-08-03T07:16:30.889Z,43.02
2022-08-03T07:17:30.008Z,44.15
2022-08-03T07:18:30.887Z,44.15
2022-08-03T07:19:29.936Z,43.99
2022-08-03T07:20:32.530Z,45.92
2022-08-03T07:21:30.884Z,43.83
2022-08-03T07:22:30.025Z,42.86
2022-08-03T07:23:29.934Z,43.18
2022-08-03T07:24:29.901Z,45.92
2022-08-03T07:25:29.899Z,43.99
2022-08-03T07:26:29.867Z,45.28
2022-08-03T07:27:29.878Z,43.02
2022-08-03T07:28:29.927Z,44.31
2022-08-03T07:29:29.795Z,43.18
2022-08-03T07:30:29.813Z,43.67
2022-08-03T07:31:34.343Z,42.70
2022-08-03T07:32:29.828Z,44.15
2022-08-03T07:33:29.820Z,45.76
2022-08-03T07:34:29.769Z,43.51
2022-08-03T07:35:29.757Z,44.96
2022-08-03T07:36:29.790Z,46.41
2022-08-03T07:37:29.863Z,43.99
2022-08-03T07:38:29.873Z,43.83
2022-08-03T07:39:29.791Z,45.12
2022-08-03T07:40:31.550Z,45.44
2022-08-03T07:41:29.737Z,46.41
2022-08-03T07:42:29.789Z,43.34
2022-08-03T07:43:29.745Z,46.57
2022-08-03T07:44:29.801Z,44.31
2022-08-03T07:45:29.859Z,45.44
2022-08-03T07:46:29.716Z,44.15
2022-08-03T07:47:35.465Z,43.83
2022-08-03T07:48:30.799Z,43.99
2022-08-03T07:49:29.863Z,42.06
2022-08-03T07:50:29.673Z,42.22
2022-08-03T07:51:30.701Z,42.86
2022-08-03T07:52:29.698Z,46.41
2022-08-03T07:53:29.658Z,44.31
2022-08-03T07:54:29.789Z,44.47
2022-08-03T07:55:29.667Z,46.08
2022-08-03T07:56:29.639Z,43.34
2022-08-03T07:57:29.693Z,44.79
2022-08-03T07:58:29.715Z,43.83
2022-08-03T07:59:29.685Z,44.79
2022-08-03T08:00:30.706Z,43.51
2022-08-03T08:01:29.786Z,46.57
2022-08-03T08:02:29.650Z,41.25
2022-08-03T08:03:29.693Z,43.83
2022-08-03T08:04:30.594Z,43.34
2022-08-03T08:05:29.643Z,40.77
2022-08-03T08:06:29.614Z,42.22
2022-08-03T08:07:29.568Z,41.25
2022-08-03T08:08:29.605Z,42.70
2022-08-03T08:09:29.586Z,46.41
2022-08-03T08:10:29.554Z,45.92
2022-08-03T08:11:29.617Z,44.47
2022-08-03T08:12:29.565Z,43.34
2022-08-03T08:13:29.579Z,41.57
2022-08-03T08:14:29.564Z,41.25
2022-08-03T08:15:29.544Z,43.34
2022-08-03T08:16:29.584Z,46.08
2022-08-03T08:17:29.599Z,46.08
2022-08-03T08:18:29.563Z,45.92
2022-08-03T08:19:29.526Z,43.83
2022-08-03T08:20:31.337Z,45.92
2022-08-03T08:21:53.181Z,44.15
2022-08-03T08:22:31.554Z,45.92
2022-08-03T08:23:42.182Z,42.86
2022-08-03T08:24:30.493Z,41.09
2022-08-03T08:25:29.681Z,41.73
2022-08-03T08:26:29.518Z,43.83
2022-08-03T08:28:22.172Z,42.54
2022-08-03T08:28:33.654Z,44.47
2022-08-03T08:29:29.487Z,46.08
2022-08-03T08:30:29.448Z,43.83
2022-08-03T08:31:29.491Z,44.96
2022-08-03T08:32:29.423Z,44.79
2022-08-03T08:33:48.095Z,44.79
2022-08-03T08:34:31.446Z,45.44
2022-08-03T08:35:29.407Z,42.70
2022-08-03T08:36:29.515Z,42.70
2022-08-03T08:37:29.388Z,43.67
2022-08-03T08:38:29.439Z,42.86
2022-08-03T08:39:29.394Z,43.34
2022-08-03T08:40:29.389Z,43.83
2022-08-03T08:41:31.995Z,42.38
2022-08-03T08:42:29.370Z,42.06
2022-08-03T08:43:29.500Z,43.02
2022-08-03T08:44:29.378Z,40.77
2022-08-03T08:45:29.365Z,46.41
2022-08-03T08:46:29.439Z,45.60
2022-08-03T08:47:29.337Z,44.79
2022-08-03T08:48:30.353Z,43.34
2022-08-03T08:49:29.379Z,43.18
2022-08-03T08:50:29.440Z,43.83
2022-08-03T08:51:59.034Z,43.18
2022-08-03T08:52:32.130Z,46.08
2022-08-03T08:53:29.312Z,40.77
2022-08-03T08:54:29.435Z,40.93
2022-08-03T08:55:29.346Z,42.38
2022-08-03T08:56:29.390Z,41.41
2022-08-03T08:57:42.446Z,41.89
2022-08-03T08:58:31.375Z,41.25
2022-08-03T08:59:48.905Z,40.61
2022-08-03T09:00:30.335Z,41.89
2022-08-03T09:01:29.316Z,43.51
2022-08-03T09:02:29.282Z,45.44
2022-08-03T09:03:30.768Z,44.47
2022-08-03T09:04:29.265Z,44.15
2022-08-03T09:05:54.832Z,39.32
2022-08-03T09:06:31.276Z,40.12
2022-08-03T09:07:29.324Z,41.73
2022-08-03T09:08:29.210Z,43.02
2022-08-03T09:10:11.351Z,42.86
2022-08-03T09:10:30.195Z,41.25
2022-08-03T09:11:51.636Z,38.99
2022-08-03T09:12:42.013Z,41.89
2022-08-03T09:13:31.206Z,40.61
2022-08-03T09:14:36.540Z,38.99
2022-08-03T09:15:30.189Z,40.93
2022-08-03T09:16:29.168Z,43.18
2022-08-03T09:17:29.194Z,41.73
2022-08-03T09:18:32.555Z,41.25
2022-08-03T09:19:29.190Z,40.12
2022-08-03T09:20:29.118Z,41.57
2022-08-03T09:21:32.182Z,42.22
2022-08-03T09:22:30.147Z,37.87
2022-08-03T09:24:00.669Z,40.44
2022-08-03T09:24:41.210Z,39.16
2022-08-03T09:25:31.122Z,45.28
2022-08-03T09:26:29.112Z,44.31
2022-08-03T09:27:29.084Z,42.70
2022-08-03T09:28:53.955Z,41.09
2022-08-03T09:29:30.120Z,44.96
2022-08-03T09:30:34.191Z,44.31
2022-08-03T09:31:30.075Z,41.25
2022-08-03T09:32:29.015Z,40.77
2022-08-03T09:33:36.057Z,40.61
2022-08-03T09:34:30.063Z,43.18
2022-08-03T09:35:51.503Z,40.61
2022-08-03T09:36:31.037Z,39.32
2022-08-03T09:38:12.723Z,41.41
2022-08-03T09:38:30.018Z,37.87
2022-08-03T09:39:40.591Z,41.41
2022-08-03T09:40:30.043Z,43.02
2022-08-03T09:41:28.981Z,38.83
2022-08-03T09:42:28.979Z,38.67
2022-08-03T09:43:28.965Z,39.16
2022-08-03T09:44:29.004Z,39.64
2022-08-03T09:45:28.985Z,39.80
2022-08-03T09:46:28.932Z,44.79
2022-08-03T09:47:28.954Z,40.28
2022-08-03T09:48:28.938Z,37.87
2022-08-03T09:49:28.990Z,40.44
2022-08-03T09:50:28.937Z,41.25
2022-08-03T09:52:29.512Z,39.80
2022-08-03T09:52:38.179Z,44.63
2022-08-03T09:53:29.887Z,41.41
2022-08-03T09:54:28.909Z,40.12
2022-08-03T09:56:33.264Z,39.48
2022-08-03T09:56:34.728Z,42.06
2022-08-03T09:57:29.861Z,39.64
2022-08-03T09:58:28.843Z,39.80
2022-08-03T09:59:28.957Z,40.12
2022-08-03T10:00:28.890Z,40.61
2022-08-03T10:01:28.915Z,41.09
2022-08-03T10:02:28.820Z,42.22
2022-08-03T10:03:28.943Z,36.25
2022-08-03T10:04:28.829Z,39.64
2022-08-03T10:05:28.834Z,42.06
2022-08-03T10:06:29.316Z,41.41
2022-08-03T10:07:28.810Z,40.28
2022-08-03T10:08:28.804Z,38.51
2022-08-03T10:09:28.894Z,43.34
2022-08-03T10:10:31.591Z,42.70
2022-08-03T10:11:28.797Z,42.38
2022-08-03T10:12:28.789Z,40.44
2022-08-03T10:13:28.746Z,39.32
2022-08-03T10:14:28.752Z,38.99
2022-08-03T10:16:23.291Z,40.12
2022-08-03T10:16:29.752Z,41.25
2022-08-03T10:17:28.811Z,41.57
2022-08-03T10:18:28.761Z,42.54
2022-08-03T10:19:28.720Z,43.18
2022-08-03T10:20:28.738Z,41.57
2022-08-03T10:21:28.763Z,40.61
2022-08-03T10:22:28.766Z,41.25
2022-08-03T10:23:31.872Z,40.28
2022-08-03T10:24:28.750Z,40.28
2022-08-03T10:25:33.047Z,37.38
2022-08-03T10:26:28.693Z,42.70
2022-08-03T10:27:28.722Z,40.77
2022-08-03T10:28:28.663Z,40.28
2022-08-03T10:29:28.713Z,38.51
2022-08-03T10:30:29.019Z,38.83
2022-08-03T10:31:28.640Z,38.99
2022-08-03T10:32:28.649Z,39.80
2022-08-03T10:33:50.183Z,38.83
2022-08-03T10:34:29.650Z,40.61
2022-08-03T10:35:28.769Z,37.87
2022-08-03T10:36:28.595Z,39.32
2022-08-03T10:37:28.613Z,41.57
2022-08-03T10:38:28.595Z,40.12
2022-08-03T10:39:28.641Z,39.64
2022-08-03T10:40:54.549Z,39.48
2022-08-03T10:41:30.605Z,40.12
2022-08-03T10:42:28.648Z,39.64
2022-08-03T10:43:28.593Z,39.16
2022-08-03T10:44:28.674Z,41.09
2022-08-03T10:45:28.628Z,41.09
2022-08-03T10:46:28.576Z,42.70
2022-08-03T10:47:28.527Z,42.86
2022-08-03T10:48:28.566Z,39.96
2022-08-03T10:49:34.443Z,39.64
2022-08-03T10:50:29.553Z,40.28
2022-08-03T10:51:28.577Z,39.64
2022-08-03T10:52:32.798Z,39.80
2022-08-03T10:53:29.519Z,38.83
2022-08-03T10:54:28.495Z,38.99
2022-08-03T10:55:28.510Z,38.03
2022-08-03T10:56:48.021Z,43.51
2022-08-03T10:57:29.596Z,43.83
2022-08-03T10:58:30.825Z,40.44
2022-08-03T10:59:28.450Z,39.80
2022-08-03T11:00:28.520Z,38.83
2022-08-03T11:01:28.452Z,37.38
2022-08-03T11:02:29.511Z,38.03
2022-08-03T11:03:28.441Z,39.64
2022-08-03T11:04:29.942Z,38.19
2022-08-03T11:05:28.441Z,38.35
2022-08-03T11:06:28.423Z,40.77
2022-08-03T11:07:29.418Z,43.83
2022-08-03T11:08:28.448Z,39.64
2022-08-03T11:09:28.394Z,40.12
2022-08-03T11:10:28.375Z,38.83
2022-08-03T11:11:28.379Z,39.96
2022-08-03T11:12:31.137Z,40.93
2022-08-03T11:13:28.403Z,41.41
2022-08-03T11:14:28.382Z,40.93
2022-08-03T11:15:28.397Z,41.09
2022-08-03T11:16:28.373Z,39.16
2022-08-03T11:17:28.404Z,39.80
2022-08-03T11:18:28.378Z,39.48
2022-08-03T11:19:28.339Z,40.12
2022-08-03T11:20:28.341Z,38.03
2022-08-03T11:21:30.437Z,40.61
2022-08-03T11:22:29.322Z,40.12
2022-08-03T11:24:02.504Z,43.83
2022-08-03T11:24:29.335Z,42.70
2022-08-03T11:25:54.745Z,42.06
2022-08-03T11:26:29.267Z,40.77
2022-08-03T11:27:29.276Z,41.41
2022-08-03T11:28:28.486Z,42.22
2022-08-03T11:29:28.260Z,44.47
2022-08-03T11:30:28.273Z,39.80
2022-08-03T11:31:52.087Z,40.61
2022-08-03T11:32:30.250Z,41.09
2022-08-03T11:33:28.244Z,38.83
2022-08-03T11:34:28.230Z,37.87
2022-08-03T11:35:28.282Z,36.90
2022-08-03T11:36:32.550Z,37.06
2022-08-03T11:37:33.160Z,38.35
2022-08-03T11:38:30.512Z,39.96
2022-08-03T11:39:28.235Z,41.73
2022-08-03T11:40:28.225Z,47.21
2022-08-03T11:41:28.202Z,51.08
2022-08-03T11:42:28.233Z,51.24
2022-08-03T11:43:31.030Z,50.43
2022-08-03T11:44:29.190Z,51.08
2022-08-03T11:45:28.419Z,50.60
2022-08-03T11:46:30.076Z,40.93
2022-08-03T11:47:28.326Z,38.19
2022-08-03T11:48:28.516Z,40.44
2022-08-03T11:49:28.353Z,42.86
2022-08-03T11:50:28.182Z,40.12
2022-08-03T11:51:28.270Z,41.89
2022-08-03T11:52:28.987Z,38.99
2022-08-03T11:53:29.163Z,41.41
2022-08-03T11:54:28.101Z,42.38
2022-08-03T11:55:30.650Z,40.93
2022-08-03T11:56:29.103Z,37.87
2022-08-03T11:59:00.775Z,42.54
2022-08-03T11:59:16.665Z,39.64
2022-08-03T11:59:29.086Z,41.89
2022-08-03T12:00:28.095Z,42.70
2022-08-03T12:01:28.100Z,41.89
2022-08-03T12:02:31.364Z,41.41
2022-08-03T12:03:28.143Z,43.34
2022-08-03T12:04:28.069Z,41.89
2022-08-03T12:05:28.133Z,41.89
2022-08-03T12:06:28.098Z,41.25
2022-08-03T12:08:04.021Z,43.51
2022-08-03T12:08:29.039Z,43.51
2022-08-03T12:09:28.012Z,41.25
2022-08-03T12:10:28.124Z,42.38
2022-08-03T12:11:28.049Z,41.57
2022-08-03T12:12:28.055Z,42.22
2022-08-03T12:14:43.925Z,41.41
2022-08-03T12:14:50.296Z,40.12
2022-08-03T12:15:29.058Z,40.61
2022-08-03T12:16:27.987Z,40.12
2022-08-03T12:17:28.119Z,39.32
2022-08-03T12:18:27.994Z,40.28
2022-08-03T12:19:28.010Z,38.67
2022-08-03T12:20:34.516Z,40.12
2022-08-03T12:21:28.955Z,41.25
2022-08-03T12:22:28.003Z,41.89
2022-08-03T12:23:27.935Z,40.61
2022-08-03T12:24:28.060Z,41.09
2022-08-03T12:25:39.758Z,42.54
2022-08-03T12:26:28.929Z,41.73
2022-08-03T12:27:27.958Z,41.25
2022-08-03T12:28:36.025Z,41.41
2022-08-03T12:29:28.933Z,40.61
2022-08-03T12:30:27.913Z,41.41
2022-08-03T12:31:27.906Z,40.93
2022-08-03T12:32:27.903Z,40.77
2022-08-03T12:33:27.898Z,40.93
2022-08-03T12:34:30.860Z,39.64
2022-08-03T12:35:28.459Z,38.51
2022-08-03T12:36:27.935Z,38.19
2022-08-03T12:37:27.918Z,41.41
2022-08-03T12:38:27.873Z,46.57
2022-08-03T12:39:27.925Z,42.22
2022-08-03T12:40:28.461Z,41.57
2022-08-03T12:41:28.938Z,42.86
2022-08-03T12:42:27.862Z,39.96
2022-08-03T12:43:27.820Z,39.80
2022-08-03T12:44:28.841Z,38.19
2022-08-03T12:45:27.834Z,38.19
2022-08-03T12:46:27.795Z,37.54
2022-08-03T12:47:27.804Z,41.25
2022-08-03T12:48:27.995Z,37.87
2022-08-03T12:49:27.892Z,38.99
2022-08-03T12:50:27.819Z,38.51
2022-08-03T12:51:27.797Z,38.83
2022-08-03T12:52:27.792Z,39.80